Time;durP1;ratioP1;P1;durP2;ratioP2;P2;SDS_P1;SDS_P2;PMS_P1;PMS_P2;Temp;Humidity;BMP_temperature;BMP_pressure;BME280_temperature;BME280_humidity;BME280_pressure;Samples;Min_cycle;Max_cycle;Signal;HPM_P1;HPM_P2
2021/01/25 00:01:23;;;;;;;5.53;2.55;;;20.00;75.90;;;;;;5010842;28;20084;-57
2021/01/25 00:03:48;;;;;;;3.95;2.33;;;20.00;75.70;;;;;;5013313;28;20490;-57
2021/01/25 00:06:14;;;;;;;3.65;2.58;;;20.00;75.60;;;;;;5011068;28;20029;-57
2021/01/25 00:08:39;;;;;;;3.20;2.42;;;20.10;75.30;;;;;;5015150;28;20049;-57
2021/01/25 00:11:05;;;;;;;4.85;2.42;;;20.10;75.60;;;;;;5013459;28;20026;-58
2021/01/25 00:13:31;;;;;;;6.90;2.70;;;20.00;75.30;;;;;;5013308;28;20022;-58
2021/01/25 00:15:57;;;;;;;4.63;2.65;;;20.00;75.20;;;;;;5013546;28;20113;-58
2021/01/25 00:18:22;;;;;;;5.78;2.45;;;20.00;75.30;;;;;;5011808;28;20053;-58
2021/01/25 00:20:48;;;;;;;5.28;2.72;;;20.00;75.60;;;;;;5012980;28;20034;-58
2021/01/25 00:23:13;;;;;;;4.88;2.97;;;20.00;74.70;;;;;;5013209;28;20039;-58
2021/01/25 00:25:39;;;;;;;5.82;3.53;;;20.00;74.80;;;;;;5018160;28;20068;-59
2021/01/25 00:28:05;;;;;;;7.32;3.22;;;20.10;74.80;;;;;;5014775;28;20349;-58
2021/01/25 00:30:30;;;;;;;6.53;3.53;;;20.00;74.70;;;;;;5013611;28;20057;-59
2021/01/25 00:32:56;;;;;;;5.88;3.75;;;20.00;74.60;;;;;;5015621;28;20034;-58
2021/01/25 00:35:22;;;;;;;7.78;3.92;;;20.00;74.50;;;;;;5023485;28;20025;-59
2021/01/25 00:37:49;;;;;;;5.18;4.18;;;20.00;74.70;;;;;;5022853;28;20034;-58
2021/01/25 00:40:14;;;;;;;5.78;4.18;;;20.00;74.40;;;;;;5021272;28;20026;-59
2021/01/25 00:42:40;;;;;;;5.57;3.72;;;20.00;74.30;;;;;;5016565;28;20030;-58
2021/01/25 00:45:06;;;;;;;4.53;3.47;;;20.00;74.40;;;;;;5020515;28;20402;-57
2021/01/25 00:47:32;;;;;;;6.13;4.40;;;20.00;74.60;;;;;;5019370;28;20033;-57
2021/01/25 00:49:58;;;;;;;5.95;4.10;;;20.00;74.40;;;;;;5016835;28;20533;-58
2021/01/25 00:52:24;;;;;;;5.72;4.13;;;20.00;74.20;;;;;;5016785;28;20523;-58
2021/01/25 00:54:50;;;;;;;7.80;4.30;;;20.00;74.10;;;;;;5017098;28;20022;-58
2021/01/25 00:57:16;;;;;;;5.28;4.40;;;20.00;74.00;;;;;;5028621;28;20037;-57
2021/01/25 00:59:44;;;;;;;7.07;4.38;;;20.00;73.90;;;;;;5014194;28;20026;-57
2021/01/25 01:02:12;;;;;;;5.53;4.95;;;20.00;74.00;;;;;;5016892;28;20033;-58
2021/01/25 01:04:38;;;;;;;9.25;4.70;;;20.00;73.90;;;;;;5016828;28;20026;-58
2021/01/25 01:07:04;;;;;;;7.30;4.97;;;20.00;74.00;;;;;;5017069;28;20136;-58
2021/01/25 01:09:30;;;;;;;5.72;4.45;;;20.00;73.90;;;;;;5015254;28;20125;-57
2021/01/25 01:11:56;;;;;;;11.65;5.05;;;20.00;73.70;;;;;;5016521;28;20064;-58
2021/01/25 01:14:23;;;;;;;7.00;4.97;;;20.00;73.90;;;;;;5016467;28;20061;-58
2021/01/25 01:16:49;;;;;;;5.30;4.47;;;20.00;73.70;;;;;;5024293;28;20041;-56
2021/01/25 01:19:14;;;;;;;6.38;4.55;;;20.00;73.60;;;;;;5016519;28;20022;-60
2021/01/25 01:21:40;;;;;;;6.78;4.50;;;20.00;73.70;;;;;;5016176;28;20033;-60
2021/01/25 01:24:06;;;;;;;8.13;5.10;;;20.00;73.60;;;;;;5012159;28;20034;-59
2021/01/25 01:26:32;;;;;;;7.57;4.80;;;20.00;73.70;;;;;;5015084;28;20046;-60
2021/01/25 01:28:57;;;;;;;5.97;4.57;;;20.00;73.60;;;;;;5015826;28;20069;-58
2021/01/25 01:31:23;;;;;;;5.65;4.35;;;20.00;73.50;;;;;;5016060;28;20037;-59
2021/01/25 01:33:49;;;;;;;8.52;4.68;;;20.00;73.50;;;;;;5016150;28;20425;-58
2021/01/25 01:36:14;;;;;;;5.13;4.60;;;20.00;73.50;;;;;;5015995;28;20037;-59
2021/01/25 01:38:41;;;;;;;6.78;4.70;;;20.00;73.70;;;;;;5015804;28;20084;-59
2021/01/25 01:41:06;;;;;;;6.22;4.60;;;20.00;73.50;;;;;;5015255;28;20058;-59
2021/01/25 01:43:32;;;;;;;4.68;4.00;;;20.00;73.50;;;;;;5016388;28;20061;-58
2021/01/25 01:45:57;;;;;;;5.43;4.28;;;20.00;73.50;;;;;;5015875;28;20034;-57
2021/01/25 01:48:25;;;;;;;6.68;4.70;;;20.00;73.50;;;;;;5021308;28;20037;-58
2021/01/25 01:50:50;;;;;;;5.90;4.20;;;20.00;73.30;;;;;;5013772;28;20437;-60
2021/01/25 01:53:16;;;;;;;6.82;4.85;;;20.00;73.50;;;;;;5015969;28;20026;-59
2021/01/25 01:55:42;;;;;;;5.40;4.40;;;20.00;73.70;;;;;;5014310;28;20026;-58
2021/01/25 01:58:10;;;;;;;5.78;4.28;;;20.00;73.50;;;;;;5015792;28;20052;-58
2021/01/25 02:00:35;;;;;;;4.75;3.83;;;20.00;73.50;;;;;;5014112;28;20231;-58
2021/01/25 02:03:01;;;;;;;5.93;4.65;;;20.00;73.60;;;;;;5014800;28;20036;-57
2021/01/25 02:05:26;;;;;;;5.55;4.05;;;20.00;73.50;;;;;;5015178;28;20028;-59
2021/01/25 02:07:55;;;;;;;5.05;4.32;;;19.90;73.40;;;;;;5019046;28;20129;-58
2021/01/25 02:10:22;;;;;;;5.75;3.60;;;19.90;74.10;;;;;;5015403;28;20033;-58
2021/01/25 02:12:56;;;;;;;5.22;4.22;;;19.90;73.40;;;;;;5015830;28;20025;-57
2021/01/25 02:15:22;;;;;;;7.18;4.30;;;20.00;73.50;;;;;;5015342;28;20117;-58
2021/01/25 02:17:49;;;;;;;4.88;4.15;;;19.90;73.30;;;;;;5010472;28;20450;-58
2021/01/25 02:20:31;;;;;;;5.40;4.68;;;20.00;73.30;;;;;;5014795;28;20041;-58
2021/01/25 02:23:02;;;;;;;6.63;4.38;;;20.00;73.30;;;;;;5015434;28;20053;-58
2021/01/25 02:26:05;;;;;;;4.10;3.53;;;19.90;73.10;;;;;;5015268;28;20052;-59
2021/01/25 02:28:31;;;;;;;6.20;4.43;;;19.90;73.10;;;;;;4980340;28;20076;-57
2021/01/25 02:31:03;;;;;;;5.55;4.28;;;19.90;73.20;;;;;;5015030;28;20060;-57
2021/01/25 02:33:30;;;;;;;4.97;3.95;;;20.00;72.90;;;;;;5014821;28;20475;-57
2021/01/25 02:35:58;;;;;;;6.93;4.10;;;19.90;72.90;;;;;;5015085;28;20386;-59
2021/01/25 02:38:24;;;;;;;5.93;4.15;;;19.90;73.20;;;;;;5019720;28;20067;-57
2021/01/25 02:40:52;;;;;;;5.18;3.88;;;19.90;73.10;;;;;;5008958;28;20122;-57
2021/01/25 02:43:18;;;;;;;5.88;4.30;;;19.90;73.10;;;;;;5005313;28;20079;-58
2021/01/25 02:45:44;;;;;;;5.55;4.53;;;19.90;73.20;;;;;;5015110;28;20116;-58
2021/01/25 02:48:10;;;;;;;4.93;3.95;;;19.90;73.30;;;;;;5017484;28;20042;-60
2021/01/25 02:50:36;;;;;;;4.80;3.92;;;19.90;73.10;;;;;;5016642;28;20021;-58
2021/01/25 02:53:02;;;;;;;4.72;3.60;;;19.90;72.70;;;;;;5014428;28;20037;-58
2021/01/25 02:55:28;;;;;;;3.95;3.55;;;19.90;72.80;;;;;;5013409;28;20026;-59
2021/01/25 02:57:55;;;;;;;5.35;4.20;;;19.90;72.80;;;;;;5011746;28;20072;-58
2021/01/25 03:00:21;;;;;;;4.63;3.90;;;19.90;72.90;;;;;;5013740;28;20026;-58
2021/01/25 03:02:47;;;;;;;4.93;4.22;;;19.90;72.80;;;;;;5014552;28;20022;-57
2021/01/25 03:05:13;;;;;;;4.55;3.70;;;19.90;72.80;;;;;;5014631;28;20056;-57
2021/01/25 03:07:40;;;;;;;4.60;3.45;;;20.00;72.90;;;;;;5014604;28;20045;-58
2021/01/25 03:10:06;;;;;;;4.30;3.67;;;19.90;72.80;;;;;;5020568;28;20101;-57
2021/01/25 03:12:32;;;;;;;5.68;4.13;;;19.90;72.80;;;;;;5014145;28;20418;-57
2021/01/25 03:14:58;;;;;;;4.78;3.67;;;19.90;72.50;;;;;;5014156;28;20037;-58
2021/01/25 03:17:24;;;;;;;5.13;3.85;;;19.90;72.80;;;;;;5014318;28;20479;-58
2021/01/25 03:19:49;;;;;;;3.70;3.30;;;19.90;72.80;;;;;;5016492;28;20036;-58
2021/01/25 03:22:15;;;;;;;4.80;3.72;;;19.90;72.80;;;;;;5012737;28;20018;-59
2021/01/25 03:24:41;;;;;;;4.65;3.97;;;19.90;73.00;;;;;;5014026;28;20421;-58
2021/01/25 03:27:07;;;;;;;4.78;3.60;;;19.90;72.50;;;;;;5010187;28;20069;-59
2021/01/25 03:29:33;;;;;;;4.05;3.35;;;19.90;72.80;;;;;;5014033;28;20034;-59
2021/01/25 03:31:59;;;;;;;4.32;3.53;;;19.90;72.60;;;;;;5013676;28;20104;-59
2021/01/25 03:34:24;;;;;;;4.70;3.35;;;19.90;72.80;;;;;;5014399;28;20110;-59
2021/01/25 03:36:50;;;;;;;4.57;3.45;;;19.90;72.50;;;;;;5012153;28;20030;-59
2021/01/25 03:39:16;;;;;;;3.85;3.25;;;19.90;72.70;;;;;;5014121;28;20069;-59
2021/01/25 03:41:41;;;;;;;3.95;3.42;;;19.90;72.50;;;;;;5014144;28;20025;-59
2021/01/25 03:44:07;;;;;;;4.32;3.70;;;19.90;72.60;;;;;;5012496;28;20026;-59
2021/01/25 03:46:33;;;;;;;4.20;3.20;;;19.90;72.30;;;;;;5013574;28;20424;-59
2021/01/25 03:48:58;;;;;;;3.60;3.13;;;19.90;71.80;;;;;;5019294;28;20042;-59
2021/01/25 03:51:24;;;;;;;4.38;3.20;;;19.90;72.40;;;;;;5013626;28;20423;-59
2021/01/25 03:53:49;;;;;;;4.65;3.22;;;19.90;72.00;;;;;;5013537;28;20025;-59
2021/01/25 03:56:16;;;;;;;4.55;3.28;;;19.90;72.00;;;;;;5013579;28;20041;-59
2021/01/25 03:58:42;;;;;;;3.92;3.28;;;19.90;72.00;;;;;;5013924;28;20022;-59
2021/01/25 04:01:08;;;;;;;3.95;3.20;;;19.90;71.60;;;;;;5018921;28;20113;-57
2021/01/25 04:03:34;;;;;;;3.50;3.10;;;19.90;71.80;;;;;;5019494;28;20113;-57
2021/01/25 04:05:59;;;;;;;4.45;3.58;;;19.90;71.80;;;;;;5013591;28;20032;-59
2021/01/25 04:08:25;;;;;;;4.55;3.38;;;19.90;71.70;;;;;;5013168;28;20050;-59
2021/01/25 04:10:50;;;;;;;3.85;3.08;;;19.90;71.50;;;;;;5013032;28;20364;-57
2021/01/25 04:13:16;;;;;;;4.45;3.55;;;19.90;71.80;;;;;;5011732;28;20029;-58
2021/01/25 04:15:42;;;;;;;4.18;3.00;;;19.90;71.50;;;;;;5012071;28;20057;-58
2021/01/25 04:18:07;;;;;;;4.13;3.20;;;19.90;71.70;;;;;;5013436;28;20029;-58
2021/01/25 04:20:33;;;;;;;3.10;2.80;;;19.90;71.50;;;;;;5016624;28;20030;-58
2021/01/25 04:22:58;;;;;;;3.78;2.88;;;19.90;71.50;;;;;;5013169;28;20025;-58
2021/01/25 04:25:24;;;;;;;4.60;3.25;;;19.90;71.40;;;;;;5012973;28;20486;-58
2021/01/25 04:27:50;;;;;;;3.45;2.90;;;19.90;71.40;;;;;;5013079;28;20045;-58
2021/01/25 04:30:16;;;;;;;3.78;3.22;;;19.90;71.40;;;;;;5011965;28;20030;-58
2021/01/25 04:32:42;;;;;;;3.75;3.00;;;19.90;71.50;;;;;;5027885;28;20033;-57
2021/01/25 04:35:10;;;;;;;3.25;2.80;;;19.90;71.40;;;;;;5014655;28;20032;-58
2021/01/25 04:37:38;;;;;;;3.50;3.08;;;19.80;71.50;;;;;;5012882;28;20034;-57
2021/01/25 04:40:10;;;;;;;4.38;3.22;;;19.90;71.40;;;;;;5013220;28;20029;-57
2021/01/25 04:42:36;;;;;;;;;;;19.80;71.20;;;;;;5012507;28;20379;-58
2021/01/25 04:45:05;;;;;;;4.28;3.38;;;19.90;71.30;;;;;;5013312;28;19941;-58
2021/01/25 04:47:31;;;;;;;3.40;2.75;;;19.90;71.30;;;;;;5013016;28;20050;-58
2021/01/25 04:49:57;;;;;;;4.05;3.42;;;19.90;71.20;;;;;;5012934;28;20107;-58
2021/01/25 04:52:23;;;;;;;3.83;3.05;;;19.80;71.20;;;;;;5016165;28;20113;-57
2021/01/25 04:54:51;;;;;;;3.20;2.78;;;19.80;71.20;;;;;;5011064;28;20085;-58
2021/01/25 04:57:17;;;;;;;4.25;3.00;;;19.90;71.00;;;;;;5013446;28;20117;-58
2021/01/25 04:59:44;;;;;;;3.35;2.80;;;19.90;71.20;;;;;;5012964;28;20029;-58
2021/01/25 05:02:11;;;;;;;3.03;2.70;;;19.90;71.10;;;;;;5013177;28;20029;-58
2021/01/25 05:04:37;;;;;;;4.10;2.90;;;19.90;71.20;;;;;;5013038;28;20033;-58
2021/01/25 05:07:03;;;;;;;3.53;3.00;;;19.90;71.10;;;;;;5009756;28;20022;-58
2021/01/25 05:09:29;;;;;;;3.30;2.72;;;19.90;71.10;;;;;;5012850;28;20050;-58
2021/01/25 05:11:58;;;;;;;3.70;2.83;;;19.90;70.90;;;;;;5013153;28;20034;-59
2021/01/25 05:14:24;;;;;;;3.80;2.70;;;20.00;71.20;;;;;;5020820;28;20030;-58
2021/01/25 05:16:50;;;;;;;3.38;2.67;;;19.90;71.00;;;;;;5016742;28;20032;-57
2021/01/25 05:19:16;;;;;;;3.28;2.78;;;19.90;71.20;;;;;;5014667;28;20088;-58
2021/01/25 05:21:44;;;;;;;6.35;2.88;;;19.90;71.10;;;;;;5015258;28;20033;-57
2021/01/25 05:24:11;;;;;;;3.67;2.90;;;19.90;71.10;;;;;;5021333;28;20407;-57
2021/01/25 05:26:49;;;;;;;2.90;2.20;;;20.00;70.90;;;;;;5012752;28;20426;-57
2021/01/25 05:29:27;;;;;;;2.90;2.53;;;20.00;71.00;;;;;;5006058;28;20033;-58
2021/01/25 05:31:54;;;;;;;3.20;2.80;;;20.00;70.80;;;;;;5016096;28;20034;-58
2021/01/25 05:34:20;;;;;;;2.38;1.95;;;20.00;70.90;;;;;;5016235;28;20080;-58
2021/01/25 05:36:47;;;;;;;4.05;2.88;;;20.00;70.70;;;;;;5016532;28;20081;-57
2021/01/25 05:39:17;;;;;;;5.40;2.95;;;20.00;71.00;;;;;;5014928;28;20052;-57
2021/01/25 05:41:56;;;;;;;2.30;2.03;;;20.00;70.90;;;;;;5013190;28;20073;-58
2021/01/25 05:44:22;;;;;;;2.33;2.13;;;20.00;70.70;;;;;;5015870;28;20041;-58
2021/01/25 05:46:48;;;;;;;3.72;2.70;;;20.10;70.80;;;;;;5014604;28;20026;-58
2021/01/25 05:49:24;;;;;;;4.40;2.60;;;20.10;70.60;;;;;;5015506;28;20438;-58
2021/01/25 05:51:52;;;;;;;4.43;2.47;;;20.10;70.40;;;;;;5015375;28;20113;-58
2021/01/25 05:54:20;;;;;;;2.78;2.10;;;20.10;70.50;;;;;;5015725;28;20026;-59
2021/01/25 05:56:46;;;;;;;2.67;2.45;;;20.10;70.60;;;;;;5015953;28;20034;-59
2021/01/25 05:59:11;;;;;;;2.92;2.35;;;20.10;70.60;;;;;;5015392;28;20064;-59
2021/01/25 06:01:38;;;;;;;2.45;2.10;;;20.10;70.60;;;;;;5015173;28;20037;-59
2021/01/25 06:04:06;;;;;;;2.85;2.10;;;20.10;70.60;;;;;;5016345;28;20026;-59
2021/01/25 06:06:35;;;;;;;4.18;2.33;;;20.10;70.90;;;;;;5010200;28;20029;-59
2021/01/25 06:09:13;;;;;;;3.20;2.60;;;20.10;70.40;;;;;;5022817;28;20083;-59
2021/01/25 06:11:44;;;;;;;2.72;2.08;;;20.10;70.30;;;;;;5015779;28;20041;-59
2021/01/25 06:14:21;;;;;;;2.50;2.13;;;20.10;70.00;;;;;;5013730;28;20025;-60
2021/01/25 06:16:49;;;;;;;3.45;2.17;;;20.10;70.10;;;;;;5013718;28;20083;-59
2021/01/25 06:19:19;;;;;;;3.75;1.95;;;20.10;70.40;;;;;;5013950;28;20149;-60
2021/01/25 06:21:47;;;;;;;5.22;2.63;;;20.10;71.30;;;;;;5015030;28;20071;-60
2021/01/25 06:24:14;;;;;;;8.65;2.85;;;20.10;71.00;;;;;;5015133;28;20026;-59
2021/01/25 06:26:40;;;;;;;3.63;2.55;;;20.10;71.90;;;;;;5015191;28;20028;-59
2021/01/25 06:29:08;;;;;;;7.28;3.55;;;20.10;72.30;;;;;;5015377;28;20133;-59
2021/01/25 06:31:40;;;;;;;4.15;2.42;;;20.20;72.50;;;;;;5014566;28;20033;-59
2021/01/25 06:34:07;;;;;;;;;;;20.10;72.10;;;;;;5015507;28;20118;-59
2021/01/25 06:36:40;;;;;;;3.28;2.20;;;20.10;72.10;;;;;;5016579;28;19932;-59
2021/01/25 06:39:06;;;;;;;3.65;2.30;;;20.10;72.10;;;;;;5013279;28;20029;-58
2021/01/25 06:41:40;;;;;;;7.45;2.63;;;20.10;72.20;;;;;;5012510;28;20026;-58
2021/01/25 06:44:07;;;;;;;7.75;3.30;;;20.10;72.10;;;;;;5015223;28;20056;-58
2021/01/25 06:46:35;;;;;;;6.90;2.65;;;20.10;71.80;;;;;;5013171;28;20026;-58
2021/01/25 06:49:04;;;;;;;4.30;2.85;;;20.10;71.50;;;;;;5015607;28;20037;-58
2021/01/25 06:51:29;;;;;;;4.55;2.17;;;20.10;71.80;;;;;;5014901;28;20030;-58
2021/01/25 06:54:00;;;;;;;7.07;2.50;;;20.10;71.80;;;;;;5013473;28;20026;-58
2021/01/25 06:56:26;;;;;;;4.82;2.20;;;20.10;71.80;;;;;;5012919;28;20057;-58
2021/01/25 06:58:52;;;;;;;5.32;2.33;;;20.10;71.80;;;;;;5014890;28;20053;-58
2021/01/25 07:01:22;;;;;;;5.65;2.42;;;20.10;71.70;;;;;;5014427;28;20041;-58
2021/01/25 07:03:56;;;;;;;3.10;1.85;;;20.10;71.60;;;;;;5010722;28;20092;-58
2021/01/25 07:06:22;;;;;;;4.20;2.08;;;20.10;71.50;;;;;;5012287;28;20064;-57
2021/01/25 07:08:55;;;;;;;2.47;1.98;;;20.10;71.40;;;;;;5012727;28;20077;-57
2021/01/25 07:11:23;;;;;;;6.18;2.47;;;20.10;71.40;;;;;;5010394;28;20515;-57
2021/01/25 07:13:49;;;;;;;3.25;2.30;;;20.10;71.50;;;;;;5012652;28;20527;-57
2021/01/25 07:16:16;;;;;;;3.85;2.33;;;20.10;71.10;;;;;;5012200;28;20029;-57
2021/01/25 07:18:49;;;;;;;4.57;1.80;;;20.10;71.40;;;;;;5013815;28;20037;-58
2021/01/25 07:21:17;;;;;;;2.97;1.95;;;20.10;72.00;;;;;;5013896;28;20022;-58
2021/01/25 07:23:43;;;;;;;6.15;1.90;;;20.10;71.20;;;;;;5012457;28;20117;-58
2021/01/25 07:26:17;;;;;;;3.05;1.88;;;20.10;73.70;;;;;;5015291;28;20034;-57
2021/01/25 07:28:43;;;;;;;4.07;1.88;;;20.10;76.70;;;;;;5016998;28;20037;-58
2021/01/25 07:31:10;;;;;;;2.97;1.88;;;20.10;77.70;;;;;;5012675;28;20030;-57
2021/01/25 07:33:37;;;;;;;2.65;1.85;;;20.10;77.70;;;;;;5012271;28;20030;-59
2021/01/25 07:36:03;;;;;;;4.65;1.98;;;20.10;77.80;;;;;;5012601;28;20022;-57
2021/01/25 07:38:29;;;;;;;4.38;1.90;;;20.00;77.60;;;;;;5013791;28;20497;-57
2021/01/25 07:40:59;;;;;;;12.13;4.40;;;20.00;77.80;;;;;;5013853;28;20034;-57
2021/01/25 07:43:31;;;;;;;6.35;3.20;;;20.00;75.30;;;;;;5015615;28;20076;-63
2021/01/25 07:46:07;;;;;;;13.20;4.05;;;20.10;76.20;;;;;;5002714;28;20479;-57
2021/01/25 07:48:34;;;;;;;16.27;4.05;;;20.20;77.50;;;;;;5012284;28;20038;-56
2021/01/25 07:51:00;;;;;;;13.60;4.07;;;20.30;77.10;;;;;;5013357;28;20084;-54
2021/01/25 07:53:35;;;;;;;12.50;4.45;;;20.40;77.20;;;;;;5013278;28;20459;-55
2021/01/25 07:56:01;;;;;;;16.40;5.25;;;20.50;76.20;;;;;;5014638;28;20026;-56
2021/01/25 07:58:27;;;;;;;16.08;5.47;;;20.50;75.90;;;;;;5010767;28;20443;-54
2021/01/25 08:00:53;;;;;;;22.73;6.38;;;20.50;75.90;;;;;;5013637;28;20553;-55
2021/01/25 08:03:25;;;;;;;24.30;6.28;;;20.50;75.80;;;;;;5016852;28;20021;-55
2021/01/25 08:05:58;;;;;;;23.92;6.65;;;20.50;75.70;;;;;;5012120;28;20549;-55
2021/01/25 08:08:26;;;;;;;18.98;6.60;;;20.50;75.90;;;;;;5014246;28;20494;-54
2021/01/25 08:10:53;;;;;;;18.55;6.25;;;20.60;76.30;;;;;;5013263;28;20038;-55
2021/01/25 08:13:23;;;;;;;18.30;6.50;;;20.60;76.20;;;;;;5013228;28;20034;-54
2021/01/25 08:15:59;;;;;;;21.65;5.90;;;20.70;75.90;;;;;;5019553;28;20025;-56
2021/01/25 08:18:51;;;;;;;19.33;6.10;;;20.60;75.40;;;;;;5022847;28;20104;-54
2021/01/25 08:21:23;;;;;;;24.75;6.85;;;20.60;75.00;;;;;;5013676;28;20107;-54
2021/01/25 08:23:51;;;;;;;19.92;6.85;;;20.60;75.30;;;;;;5016596;28;20076;-54
2021/01/25 08:26:26;;;;;;;23.80;7.10;;;20.60;75.50;;;;;;5011721;28;20085;-55
2021/01/25 08:29:19;;;;;;;22.60;5.65;;;20.60;75.50;;;;;;5014728;28;20459;-54
2021/01/25 08:31:46;;;;;;;18.67;6.30;;;20.60;75.60;;;;;;5012026;28;20376;-55
2021/01/25 08:34:23;;;;;;;17.10;5.65;;;20.60;75.80;;;;;;5022187;28;20029;-53
2021/01/25 08:36:57;;;;;;;22.77;7.15;;;20.60;75.80;;;;;;5005627;28;20467;-53
2021/01/25 08:39:34;;;;;;;18.33;5.95;;;20.60;75.40;;;;;;5015027;28;20030;-52
2021/01/25 08:42:02;;;;;;;23.10;6.45;;;20.60;75.50;;;;;;5019465;28;20485;-53
2021/01/25 08:44:28;;;;;;;20.35;6.10;;;20.60;75.40;;;;;;5015913;28;20036;-53
2021/01/25 08:47:05;;;;;;;15.88;6.15;;;20.70;75.70;;;;;;5018685;28;20022;-52
2021/01/25 08:49:37;;;;;;;21.10;7.47;;;20.60;75.60;;;;;;5009781;28;20034;-52
2021/01/25 08:52:05;;;;;;;;;;;20.60;75.50;;;;;;5017207;28;20028;-53
2021/01/25 08:54:40;;;;;;;23.50;7.07;;;20.60;75.10;;;;;;5013998;28;19916;-52
2021/01/25 08:57:16;;;;;;;22.20;7.00;;;20.60;75.20;;;;;;5026767;28;20068;-53
2021/01/25 08:59:44;;;;;;;15.98;6.38;;;20.60;75.40;;;;;;5007462;28;20084;-52
2021/01/25 09:02:09;;;;;;;26.88;7.72;;;20.60;75.30;;;;;;5026017;28;20030;-52
2021/01/25 09:04:35;;;;;;;24.05;7.30;;;20.60;75.20;;;;;;5018513;28;20379;-53
2021/01/25 09:07:01;;;;;;;18.98;6.32;;;20.60;75.10;;;;;;5017582;28;20038;-53
2021/01/25 09:09:26;;;;;;;18.85;6.72;;;20.60;75.40;;;;;;5023912;28;20402;-53
2021/01/25 09:11:52;;;;;;;18.30;7.03;;;20.70;75.40;;;;;;5015389;28;20041;-53
2021/01/25 09:14:20;;;;;;;15.73;6.43;;;20.60;75.20;;;;;;5013924;28;20034;-54
2021/01/25 09:16:46;;;;;;;17.02;6.80;;;20.70;75.10;;;;;;5014976;28;20022;-53
2021/01/25 09:19:14;;;;;;;19.27;6.47;;;20.60;75.10;;;;;;5017155;28;20026;-53
2021/01/25 09:21:40;;;;;;;21.38;6.63;;;20.70;75.10;;;;;;5016203;28;20037;-53
2021/01/25 09:24:06;;;;;;;13.88;6.20;;;20.70;75.70;;;;;;5010764;28;20022;-52
2021/01/25 09:26:32;;;;;;;18.27;6.57;;;20.60;75.40;;;;;;5022731;28;20422;-52
2021/01/25 09:28:58;;;;;;;16.58;6.53;;;20.60;75.30;;;;;;5021219;28;20073;-53
2021/01/25 09:31:26;;;;;;;15.57;5.75;;;20.60;75.20;;;;;;5015925;28;20068;-54
2021/01/25 09:33:56;;;;;;;16.77;5.70;;;20.70;75.10;;;;;;5025866;28;20363;-53
2021/01/25 09:36:22;;;;;;;16.52;5.93;;;20.60;74.90;;;;;;5025198;28;20025;-52
2021/01/25 09:38:47;;;;;;;26.35;6.93;;;20.70;75.10;;;;;;5026051;28;20433;-53
2021/01/25 09:41:13;;;;;;;12.35;5.53;;;20.60;74.90;;;;;;5014780;28;20109;-54
2021/01/25 09:43:39;;;;;;;18.00;5.88;;;20.60;74.60;;;;;;5025062;28;20033;-53
2021/01/25 09:46:07;;;;;;;16.08;6.00;;;20.70;75.10;;;;;;5023066;28;20447;-53
2021/01/25 09:48:33;;;;;;;15.57;5.90;;;20.60;75.30;;;;;;5019999;28;20045;-54
2021/01/25 09:50:58;;;;;;;15.23;5.65;;;20.60;75.30;;;;;;5015747;28;20022;-52
2021/01/25 09:53:29;;;;;;;16.73;6.00;;;20.60;75.00;;;;;;5012033;28;20638;-55
2021/01/25 09:55:57;;;;;;;16.05;5.90;;;20.60;75.10;;;;;;5015543;28;20038;-54
2021/01/25 09:58:23;;;;;;;17.23;5.90;;;20.60;75.20;;;;;;5016059;28;20558;-53
2021/01/25 10:00:50;;;;;;;13.10;5.75;;;20.60;75.10;;;;;;5017292;28;20050;-55
2021/01/25 10:03:19;;;;;;;17.60;6.18;;;20.70;75.10;;;;;;5015199;28;20057;-54
2021/01/25 10:05:45;;;;;;;15.55;5.43;;;20.70;75.10;;;;;;5014083;28;20072;-54
2021/01/25 10:08:11;;;;;;;16.08;6.07;;;20.70;74.70;;;;;;5018796;28;20099;-54
2021/01/25 10:10:37;;;;;;;15.30;5.50;;;20.70;74.50;;;;;;5010570;28;20447;-54
2021/01/25 10:13:05;;;;;;;14.57;5.38;;;20.70;74.80;;;;;;5014460;28;20026;-54
2021/01/25 10:15:31;;;;;;;12.52;6.07;;;20.60;75.10;;;;;;5023296;28;20022;-54
2021/01/25 10:17:57;;;;;;;17.05;6.55;;;20.70;74.80;;;;;;5019993;28;20036;-54
2021/01/25 10:20:23;;;;;;;15.32;5.57;;;20.60;74.90;;;;;;5020159;28;20462;-55
2021/01/25 10:22:51;;;;;;;13.57;5.40;;;20.80;74.80;;;;;;5024124;28;20479;-54
2021/01/25 10:25:19;;;;;;;15.68;5.82;;;20.80;74.80;;;;;;5013817;28;20169;-54
2021/01/25 10:27:45;;;;;;;12.50;4.72;;;20.70;74.80;;;;;;5022648;28;20040;-55
2021/01/25 10:30:12;;;;;;;17.05;6.07;;;20.70;74.90;;;;;;5018706;28;20030;-53
2021/01/25 10:32:38;;;;;;;15.13;5.22;;;20.60;75.00;;;;;;5010761;28;20084;-53
2021/01/25 10:35:08;;;;;;;15.07;5.68;;;20.60;75.10;;;;;;5017109;28;20026;-54
2021/01/25 10:37:33;;;;;;;10.77;4.95;;;20.60;75.90;;;;;;5018251;28;20029;-55
2021/01/25 10:39:59;;;;;;;10.23;5.07;;;20.70;75.30;;;;;;5013556;28;20026;-54
2021/01/25 10:42:25;;;;;;;11.45;5.07;;;20.70;74.60;;;;;;5013295;28;20038;-55
2021/01/25 10:44:50;;;;;;;15.52;5.57;;;20.70;75.00;;;;;;5019050;28;20022;-55
2021/01/25 10:47:19;;;;;;;13.10;4.82;;;20.70;75.20;;;;;;5023504;28;20037;-53
2021/01/25 10:49:48;;;;;;;14.55;5.88;;;20.70;74.90;;;;;;5017692;28;20556;-54
2021/01/25 10:52:16;;;;;;;14.00;4.43;;;20.70;75.10;;;;;;5012877;28;20036;-53
2021/01/25 10:54:41;;;;;;;12.25;4.57;;;20.60;74.80;;;;;;5011363;28;20382;-54
2021/01/25 10:57:07;;;;;;;11.38;5.28;;;20.60;74.90;;;;;;5019009;28;20022;-55
2021/01/25 10:59:36;;;;;;;9.45;4.55;;;20.50;72.60;;;;;;5018393;28;20032;-55
2021/01/25 11:02:04;;;;;;;14.45;5.38;;;20.50;73.60;;;;;;5008273;28;20030;-55
2021/01/25 11:04:30;;;;;;;12.82;5.78;;;20.60;74.40;;;;;;5028698;28;20033;-55
2021/01/25 11:06:55;;;;;;;11.73;4.93;;;20.60;75.00;;;;;;5015903;28;20026;-54
2021/01/25 11:09:21;;;;;;;18.23;5.47;;;20.50;75.00;;;;;;5027066;28;20522;-54
2021/01/25 11:11:47;;;;;;;17.23;6.53;;;20.50;75.10;;;;;;5013995;28;20052;-55
2021/01/25 11:14:12;;;;;;;17.00;5.95;;;20.50;74.90;;;;;;5018650;28;20383;-55
2021/01/25 11:16:38;;;;;;;19.90;6.57;;;20.50;75.30;;;;;;5015523;28;20030;-55
2021/01/25 11:19:04;;;;;;;20.25;7.25;;;20.50;75.60;;;;;;5015483;28;20030;-55
2021/01/25 11:21:29;;;;;;;15.82;6.70;;;20.50;75.50;;;;;;5014046;28;20022;-54
2021/01/25 11:23:55;;;;;;;16.77;6.50;;;20.50;75.50;;;;;;5015448;28;20053;-55
2021/01/25 11:26:22;;;;;;;14.90;5.97;;;20.50;75.40;;;;;;5013843;28;20104;-55
2021/01/25 11:28:47;;;;;;;14.63;5.72;;;20.50;75.40;;;;;;5019282;28;20099;-55
2021/01/25 11:31:13;;;;;;;17.77;6.03;;;20.50;75.40;;;;;;5015800;28;20383;-54
2021/01/25 11:33:40;;;;;;;16.85;6.18;;;20.50;75.50;;;;;;5010536;28;20034;-55
2021/01/25 11:36:06;;;;;;;17.48;6.55;;;20.50;75.60;;;;;;5015547;28;20033;-54
2021/01/25 11:38:32;;;;;;;16.85;6.15;;;20.40;75.70;;;;;;5014721;28;20057;-54
2021/01/25 11:40:58;;;;;;;17.30;6.65;;;20.50;75.60;;;;;;5012197;28;20072;-55
2021/01/25 11:43:24;;;;;;;15.90;5.95;;;20.50;75.70;;;;;;5014209;28;20471;-55
2021/01/25 11:45:50;;;;;;;16.00;5.78;;;20.50;75.70;;;;;;5019025;28;20402;-55
2021/01/25 11:48:17;;;;;;;16.92;5.68;;;20.40;75.70;;;;;;5014746;28;20049;-55
2021/01/25 11:50:47;;;;;;;17.88;5.85;;;20.40;75.70;;;;;;5011181;28;20120;-55
2021/01/25 11:53:13;;;;;;;15.43;5.93;;;20.40;75.70;;;;;;5027984;28;20041;-57
2021/01/25 11:55:41;;;;;;;15.77;6.32;;;20.50;75.80;;;;;;5010128;28;20038;-56
2021/01/25 11:58:07;;;;;;;15.30;5.50;;;20.70;75.40;;;;;;5019802;28;20025;-53
2021/01/25 12:00:33;;;;;;;15.77;5.65;;;20.80;74.90;;;;;;5011479;28;20029;-53
2021/01/25 12:02:58;;;;;;;15.52;5.65;;;20.90;74.70;;;;;;5022444;28;20108;-53
2021/01/25 12:05:24;;;;;;;14.88;5.00;;;20.90;74.60;;;;;;5019008;28;20041;-52
2021/01/25 12:07:50;;;;;;;12.85;5.50;;;20.90;74.50;;;;;;5016772;28;20038;-54
2021/01/25 12:10:16;;;;;;;10.40;4.60;;;21.00;74.50;;;;;;5013705;28;20053;-53
2021/01/25 12:12:41;;;;;;;13.75;5.43;;;21.00;74.30;;;;;;5013462;28;20022;-53
2021/01/25 12:15:08;;;;;;;13.43;4.88;;;21.00;74.40;;;;;;5019709;28;20459;-54
2021/01/25 12:17:33;;;;;;;12.27;5.13;;;21.00;74.30;;;;;;5014439;28;20022;-54
2021/01/25 12:19:59;;;;;;;13.43;4.82;;;21.00;74.30;;;;;;5013151;28;20034;-55
2021/01/25 12:22:24;;;;;;;10.93;4.65;;;21.10;74.30;;;;;;5017153;28;20026;-53
2021/01/25 12:24:50;;;;;;;19.02;5.28;;;21.10;74.40;;;;;;5011102;28;20026;-52
2021/01/25 12:27:17;;;;;;;14.77;5.65;;;21.10;74.40;;;;;;5016993;28;20025;-54
2021/01/25 12:29:42;;;;;;;13.23;5.03;;;21.10;74.50;;;;;;5021577;28;20387;-54
2021/01/25 12:32:08;;;;;;;12.20;4.82;;;21.20;74.40;;;;;;5015203;28;20040;-54
2021/01/25 12:34:35;;;;;;;12.05;4.80;;;21.20;74.30;;;;;;5021046;28;20057;-53
2021/01/25 12:37:01;;;;;;;14.77;5.00;;;21.20;74.10;;;;;;5013092;28;20113;-54
2021/01/25 12:39:27;;;;;;;10.80;4.50;;;21.20;74.20;;;;;;5014033;28;20057;-54
2021/01/25 12:41:53;;;;;;;13.77;5.07;;;21.20;74.10;;;;;;5011168;28;20072;-54
2021/01/25 12:44:18;;;;;;;13.85;5.10;;;21.20;74.30;;;;;;5011300;28;20033;-57